Time;durP1;ratioP1;P1;durP2;ratioP2;P2;SDS_P1;SDS_P2;PMS_P1;PMS_P2;Temp;Humidity;BMP_temperature;BMP_pressure;BME280_temperature;BME280_humidity;BME280_pressure;Samples;Min_cycle;Max_cycle;Signal;HPM_P1;HPM_P2
2022/06/15 00:01:26;;;;;;;9.25;4.20;;;;;;;15.74;59.34;101807.72;4978068;28;20041;-71
2022/06/15 00:03:52;;;;;;;7.60;4.30;;;;;;;15.82;58.81;101802.66;4993356;28;20018;-71
2022/06/15 00:06:24;;;;;;;9.10;4.45;;;;;;;15.72;59.32;101785.50;5008946;28;20100;-71
2022/06/15 00:08:52;;;;;;;8.10;4.15;;;;;;;15.75;59.09;101801.38;5009236;28;20026;-71
2022/06/15 00:11:33;;;;;;;8.47;3.97;;;;;;;15.72;59.48;101794.41;4992552;28;20044;-71
2022/06/15 00:14:04;;;;;;;9.25;4.63;;;;;;;15.59;59.36;101791.69;5010935;28;20026;-70
2022/06/15 00:16:32;;;;;;;7.32;4.05;;;;;;;15.60;59.57;101789.88;5011449;28;20112;-71
2022/06/15 00:19:02;;;;;;;7.05;4.10;;;;;;;15.63;59.50;101795.88;5010853;28;20041;-70
2022/06/15 00:21:28;;;;;;;9.68;4.35;;;;;;;15.60;59.56;101793.41;5012430;28;20037;-71
2022/06/15 00:23:54;;;;;;;7.43;4.45;;;;;;;15.62;59.74;101788.81;4989732;28;20037;-71
2022/06/15 00:26:19;;;;;;;6.20;3.97;;;;;;;15.57;59.88;101784.72;5008105;28;20108;-71
2022/06/15 00:28:45;;;;;;;7.95;4.30;;;;;;;15.51;60.18;101790.50;4994749;28;20067;-71
2022/06/15 00:31:11;;;;;;;8.32;4.22;;;;;;;15.45;60.54;101794.47;4977928;28;20042;-71
2022/06/15 00:33:37;;;;;;;6.45;4.15;;;;;;;15.44;60.03;101796.28;4994960;28;20478;-71
2022/06/15 00:36:09;;;;;;;9.70;4.57;;;;;;;15.33;60.76;101785.44;4991489;28;20045;-71
2022/06/15 00:38:58;;;;;;;7.68;4.22;;;;;;;15.36;60.40;101784.38;5009364;28;20087;-71
2022/06/15 00:41:31;;;;;;;6.10;4.05;;;;;;;15.19;61.28;101782.81;5009552;28;20137;-71
2022/06/15 00:44:02;;;;;;;8.73;3.95;;;;;;;15.15;61.56;101787.53;5010060;28;20025;-71
2022/06/15 00:46:40;;;;;;;9.20;4.28;;;;;;;15.18;60.79;101773.09;5010623;28;20036;-71
2022/06/15 00:49:12;;;;;;;5.85;3.78;;;;;;;15.11;61.58;101785.16;4993038;28;20030;-71
2022/06/15 00:51:39;;;;;;;5.78;4.38;;;;;;;15.02;61.74;101777.75;5007852;28;20623;-71
2022/06/15 00:54:06;;;;;;;7.80;4.65;;;;;;;15.02;61.63;101767.88;5011078;28;20064;-71
2022/06/15 00:56:33;;;;;;;8.00;4.15;;;;;;;15.11;61.42;101775.28;4989851;28;20361;-71
2022/06/15 00:59:05;;;;;;;9.48;4.25;;;;;;;14.80;62.08;101771.13;4993623;28;20029;-71
2022/06/15 01:01:30;;;;;;;10.13;4.63;;;;;;;14.94;62.10;101780.91;5005841;28;20703;-71
2022/06/15 01:03:58;;;;;;;7.82;4.65;;;;;;;14.72;63.00;101777.00;4975569;28;20113;-71
2022/06/15 01:06:37;;;;;;;8.52;5.07;;;;;;;14.74;63.16;101772.41;5010512;28;20069;-70
2022/06/15 01:09:17;;;;;;;6.13;4.57;;;;;;;14.81;63.01;101769.31;5007843;28;20026;-71
2022/06/15 01:11:54;;;;;;;9.07;4.32;;;;;;;14.75;63.05;101766.06;4990647;28;20666;-71
2022/06/15 01:14:40;;;;;;;8.15;4.70;;;;;;;14.64;63.87;101770.41;5009149;28;20030;-71
2022/06/15 01:17:33;;;;;;;7.72;5.30;;;;;;;14.66;63.64;101769.38;5008898;28;20045;-71
2022/06/15 01:20:08;;;;;;;6.13;4.85;;;;;;;14.65;63.76;101764.97;5010916;28;20366;-71
2022/06/15 01:22:55;;;;;;;6.68;4.80;;;;;;;14.69;63.62;101762.94;5008358;28;20042;-70
2022/06/15 01:25:35;;;;;;;6.93;4.68;;;;;;;14.72;63.77;101774.31;5008609;28;20022;-70
2022/06/15 01:28:41;;;;;;;6.72;5.03;;;;;;;14.81;62.91;101772.00;4992122;28;20095;-71
2022/06/15 01:31:07;;;;;;;7.50;5.18;;;;;;;14.74;63.75;101761.69;5004479;28;20033;-71
2022/06/15 01:33:49;;;;;;;7.93;4.95;;;;;;;14.79;63.19;101764.03;5009043;28;20036;-71
2022/06/15 01:36:28;;;;;;;8.95;4.88;;;;;;;14.73;62.93;101749.25;5010546;28;20030;-71
2022/06/15 01:39:12;;;;;;;;;;;;;;;14.91;61.54;101759.69;4990608;28;20058;-71
2022/06/15 01:41:49;;;;;;;8.75;5.10;;;;;;;14.60;63.80;101755.53;5007248;28;19925;-70
2022/06/15 01:44:29;;;;;;;9.23;5.57;;;;;;;14.68;63.76;101756.75;4990664;28;20034;-70
2022/06/15 01:47:00;;;;;;;9.05;5.13;;;;;;;14.49;64.27;101759.72;5007711;28;20044;-71
2022/06/15 01:49:33;;;;;;;7.00;5.63;;;;;;;14.40;64.57;101751.44;5011869;28;20021;-71
2022/06/15 01:52:00;;;;;;;9.52;5.03;;;;;;;14.43;64.68;101749.41;5008675;28;20025;-70
2022/06/15 01:54:36;;;;;;;10.93;6.00;;;;;;;14.28;65.12;101756.59;4990055;28;20022;-71
2022/06/15 01:57:05;;;;;;;8.38;5.78;;;;;;;14.32;65.15;101744.75;5010565;28;20026;-71
2022/06/15 01:59:42;;;;;;;9.52;5.80;;;;;;;14.26;65.67;101747.81;4990124;28;20057;-71
2022/06/15 02:02:27;;;;;;;8.13;5.70;;;;;;;14.30;65.13;101737.78;5006832;28;20473;-71
2022/06/15 02:05:23;;;;;;;8.70;5.32;;;;;;;14.31;65.30;101747.53;5006922;28;20037;-71
2022/06/15 02:07:49;;;;;;;7.75;5.03;;;;;;;14.30;65.38;101741.31;5006868;28;20359;-71
2022/06/15 02:10:27;;;;;;;10.68;5.43;;;;;;;14.22;65.36;101738.28;4991089;28;20033;-71
2022/06/15 02:13:07;;;;;;;9.05;5.90;;;;;;;14.19;65.59;101742.97;4987506;28;20429;-71
2022/06/15 02:15:36;;;;;;;8.60;5.25;;;;;;;14.13;66.00;101743.38;5009514;28;20501;-71
2022/06/15 02:18:07;;;;;;;9.05;5.15;;;;;;;14.15;66.14;101739.63;5013717;28;20110;-71
2022/06/15 02:20:45;;;;;;;8.20;5.43;;;;;;;14.18;65.96;101733.22;5008033;28;20485;-71
2022/06/15 02:23:13;;;;;;;6.57;5.38;;;;;;;14.12;65.53;101725.56;5008692;28;20061;-71
2022/06/15 02:25:43;;;;;;;9.45;5.45;;;;;;;14.14;65.94;101734.38;5007187;28;20022;-71
2022/06/15 02:28:10;;;;;;;9.77;5.75;;;;;;;14.14;66.32;101734.38;4987928;28;20402;-71
2022/06/15 02:30:36;;;;;;;9.38;5.28;;;;;;;14.11;66.22;101734.56;5008575;28;20022;-71
2022/06/15 02:33:26;;;;;;;9.95;5.20;;;;;;;14.07;66.05;101726.75;4976161;28;20034;-71
2022/06/15 02:35:52;;;;;;;9.23;5.90;;;;;;;14.02;66.02;101719.97;5010084;28;20018;-71
2022/06/15 02:38:17;;;;;;;9.68;5.57;;;;;;;13.88;66.86;101728.00;4990638;28;20291;-71
2022/06/15 02:40:43;;;;;;;11.05;5.88;;;;;;;14.02;66.30;101730.66;5008214;28;20046;-71
2022/06/15 02:43:10;;;;;;;7.53;5.60;;;;;;;13.88;66.55;101714.63;5006591;28;20026;-70
2022/06/15 02:45:38;;;;;;;9.15;5.55;;;;;;;13.90;66.74;101715.38;4989780;28;20038;-70
2022/06/15 02:48:06;;;;;;;10.48;5.15;;;;;;;13.97;66.47;101716.72;5008049;28;20026;-71
2022/06/15 02:50:55;;;;;;;9.18;5.65;;;;;;;13.97;66.70;101714.03;5007503;28;20026;-71
2022/06/15 02:53:25;;;;;;;9.80;5.72;;;;;;;13.82;67.06;101715.84;4992809;28;21294;-71
2022/06/15 02:55:52;;;;;;;12.60;5.88;;;;;;;13.81;66.98;101712.34;5008545;28;20030;-71
2022/06/15 02:58:29;;;;;;;8.98;5.68;;;;;;;13.82;66.70;101703.38;4987887;28;20025;-71
2022/06/15 03:00:58;;;;;;;11.43;5.88;;;;;;;13.70;67.33;101708.63;5021823;28;20029;-70
2022/06/15 03:03:27;;;;;;;10.35;5.13;;;;;;;13.75;67.33;101711.88;4993256;28;20026;-70
2022/06/15 03:05:55;;;;;;;9.15;5.63;;;;;;;13.73;67.44;101708.41;5008506;28;20053;-71
2022/06/15 03:08:21;;;;;;;8.57;6.47;;;;;;;13.62;67.68;101709.97;5013065;28;20026;-70
2022/06/15 03:10:51;;;;;;;6.43;5.70;;;;;;;13.65;67.48;101711.59;5013369;28;20056;-70
2022/06/15 03:13:16;;;;;;;9.48;5.13;;;;;;;13.66;67.79;101710.63;5010585;28;20117;-70
2022/06/15 03:15:42;;;;;;;9.98;6.20;;;;;;;13.61;67.99;101707.38;5011286;28;20117;-71
2022/06/15 03:18:10;;;;;;;10.18;6.10;;;;;;;13.68;67.59;101706.06;4995663;28;20515;-70
2022/06/15 03:20:38;;;;;;;12.07;5.90;;;;;;;13.64;67.70;101707.19;4992509;28;20052;-70
2022/06/15 03:23:06;;;;;;;7.50;5.47;;;;;;;13.66;67.81;101712.44;5011682;28;20489;-70
2022/06/15 03:25:33;;;;;;;9.25;5.40;;;;;;;13.58;67.99;101712.91;5012589;28;20028;-71
2022/06/15 03:27:58;;;;;;;8.48;5.70;;;;;;;13.51;68.14;101714.25;5012595;28;20109;-71
2022/06/15 03:30:24;;;;;;;8.52;5.55;;;;;;;13.47;68.51;101710.03;4996203;28;20129;-71
2022/06/15 03:32:50;;;;;;;12.02;6.53;;;;;;;13.42;68.60;101715.69;4992113;28;20065;-71
2022/06/15 03:35:15;;;;;;;12.13;6.00;;;;;;;13.51;68.48;101711.59;5019119;28;20044;-70
2022/06/15 03:37:42;;;;;;;7.32;5.65;;;;;;;13.52;68.20;101714.16;4980071;28;20388;-71
2022/06/15 03:40:09;;;;;;;8.05;5.60;;;;;;;13.53;68.28;101720.34;5011965;28;20448;-70
2022/06/15 03:42:36;;;;;;;9.05;6.15;;;;;;;13.50;68.37;101715.19;4992753;28;20037;-70
2022/06/15 03:45:02;;;;;;;9.68;6.07;;;;;;;13.43;68.69;101720.06;4978850;28;20366;-70
2022/06/15 03:47:28;;;;;;;9.20;6.53;;;;;;;13.52;68.18;101726.66;5010866;28;20441;-70
2022/06/15 03:49:54;;;;;;;8.82;5.63;;;;;;;13.47;68.37;101726.94;5012241;28;20121;-70
2022/06/15 03:52:23;;;;;;;8.13;5.88;;;;;;;13.52;68.36;101729.31;5011483;28;20025;-70
2022/06/15 03:54:48;;;;;;;11.23;5.90;;;;;;;13.47;68.53;101720.72;5009197;28;20462;-70
2022/06/15 03:57:16;;;;;;;10.18;5.90;;;;;;;13.52;67.97;101719.50;5022842;28;20033;-70
2022/06/15 03:59:45;;;;;;;8.40;6.00;;;;;;;13.44;68.59;101713.75;5009869;28;20470;-70
2022/06/15 04:02:11;;;;;;;11.27;5.90;;;;;;;13.52;68.16;101727.50;5010764;28;20038;-70
2022/06/15 04:04:37;;;;;;;8.98;5.68;;;;;;;13.47;68.65;101718.94;5010883;28;20168;-71
2022/06/15 04:07:03;;;;;;;11.77;5.75;;;;;;;13.40;68.72;101714.91;5010336;28;20099;-71
2022/06/15 04:09:29;;;;;;;7.45;5.90;;;;;;;13.45;68.78;101722.66;4992602;28;20544;-70
2022/06/15 04:11:58;;;;;;;8.30;5.95;;;;;;;13.37;68.85;101725.78;5011427;28;20065;-70
2022/06/15 04:14:25;;;;;;;11.60;6.50;;;;;;;13.29;68.96;101720.88;5009585;28;20079;-71
2022/06/15 04:16:56;;;;;;;11.43;5.47;;;;;;;13.39;68.98;101727.41;5011453;28;20044;-70
2022/06/15 04:19:24;;;;;;;11.50;6.07;;;;;;;13.48;69.15;101731.34;5009340;28;20030;-71
2022/06/15 04:21:50;;;;;;;9.00;5.97;;;;;;;13.50;69.03;101726.75;5010865;28;20075;-70
2022/06/15 04:24:17;;;;;;;9.40;5.80;;;;;;;13.57;68.24;101722.75;4989311;28;20511;-71
2022/06/15 04:26:46;;;;;;;12.55;6.70;;;;;;;13.58;68.77;101723.59;5013516;28;20417;-71
2022/06/15 04:29:12;;;;;;;;;;;;;;;13.73;67.32;101725.31;5012160;28;20026;-71
2022/06/15 04:31:40;;;;;;;9.82;6.38;;;;;;;13.68;68.39;101722.09;4992410;28;19917;-70
2022/06/15 04:34:07;;;;;;;12.13;6.05;;;;;;;13.65;68.16;101716.94;5007605;28;20409;-71
2022/06/15 04:36:33;;;;;;;13.00;6.00;;;;;;;13.73;68.33;101717.28;5010065;28;20029;-71
2022/06/15 04:38:59;;;;;;;8.82;6.18;;;;;;;13.75;68.83;101720.75;4961834;28;20503;-71
2022/06/15 04:41:25;;;;;;;10.40;6.15;;;;;;;13.82;67.66;101707.84;5011018;28;20400;-71
2022/06/15 04:43:54;;;;;;;13.32;6.85;;;;;;;13.92;67.38;101719.69;4991570;28;20034;-71
2022/06/15 04:46:19;;;;;;;16.75;6.75;;;;;;;13.92;67.83;101725.03;4991812;28;20030;-71
2022/06/15 04:48:44;;;;;;;12.05;6.30;;;;;;;13.98;66.88;101730.00;4977924;28;20045;-71
2022/06/15 04:51:22;;;;;;;10.00;6.47;;;;;;;14.09;67.41;101730.19;4977555;28;20041;-71
2022/06/15 04:53:50;;;;;;;10.82;6.78;;;;;;;14.17;66.93;101732.34;5008504;28;20037;-71
2022/06/15 04:56:16;;;;;;;11.35;7.22;;;;;;;14.11;67.21;101721.19;5011172;28;20114;-71
2022/06/15 04:58:43;;;;;;;15.02;7.15;;;;;;;14.10;67.23;101725.69;4990819;28;20021;-71
2022/06/15 05:01:10;;;;;;;12.02;6.97;;;;;;;14.24;66.42;101727.50;4992487;28;20018;-70
2022/06/15 05:03:37;;;;;;;12.63;7.32;;;;;;;14.36;65.98;101736.53;4992293;28;20630;-71
2022/06/15 05:06:22;;;;;;;12.57;7.82;;;;;;;14.41;66.13;101732.59;4992596;28;20434;-71
2022/06/15 05:08:48;;;;;;;11.52;7.68;;;;;;;14.49;65.51;101742.78;5008393;28;21300;-71
2022/06/15 05:11:13;;;;;;;14.23;7.13;;;;;;;14.61;65.31;101736.66;5005239;28;20045;-71
2022/06/15 05:13:39;;;;;;;11.57;7.00;;;;;;;14.59;66.07;101738.59;5009454;28;20036;-70
2022/06/15 05:16:05;;;;;;;9.35;6.65;;;;;;;14.66;65.37;101734.56;5007751;28;20469;-71
2022/06/15 05:18:31;;;;;;;17.35;6.57;;;;;;;14.81;65.25;101734.50;5008538;28;20017;-71
2022/06/15 05:20:57;;;;;;;11.10;7.05;;;;;;;14.78;65.75;101743.59;4992581;28;20375;-71
2022/06/15 05:23:23;;;;;;;12.35;6.97;;;;;;;14.89;64.51;101742.88;4991932;28;20072;-71
2022/06/15 05:25:48;;;;;;;12.90;6.90;;;;;;;14.89;65.31;101745.56;4990211;28;20054;-70
2022/06/15 05:28:15;;;;;;;14.75;7.68;;;;;;;14.97;64.97;101736.06;4992092;28;20058;-71
2022/06/15 05:30:41;;;;;;;13.98;7.10;;;;;;;15.09;64.38;101739.72;4991092;28;20120;-71
2022/06/15 05:33:06;;;;;;;11.93;7.05;;;;;;;15.10;64.33;101733.41;4991258;28;20404;-71
2022/06/15 05:35:32;;;;;;;12.13;7.32;;;;;;;15.15;64.10;101741.13;4992199;28;20501;-71
2022/06/15 05:37:57;;;;;;;14.05;7.53;;;;;;;15.08;64.48;101729.09;4975172;28;20036;-71
2022/06/15 05:40:23;;;;;;;11.40;7.20;;;;;;;15.22;63.61;101739.75;5010362;28;20050;-70
2022/06/15 05:42:49;;;;;;;10.75;6.95;;;;;;;15.33;63.34;101734.50;4992103;28;20519;-71
2022/06/15 05:45:14;;;;;;;9.90;7.20;;;;;;;15.44;65.19;101740.00;4991407;28;20065;-71
2022/06/15 05:47:40;;;;;;;13.45;7.40;;;;;;;15.55;63.61;101733.00;5003625;28;20055;-71
2022/06/15 05:50:07;;;;;;;14.13;7.25;;;;;;;15.63;63.81;101728.81;5012034;28;20045;-71
2022/06/15 05:52:33;;;;;;;13.43;7.45;;;;;;;15.85;62.78;101733.56;5010587;28;20033;-71
2022/06/15 05:55:01;;;;;;;13.07;7.57;;;;;;;15.96;62.44;101740.84;4974489;28;20508;-71
2022/06/15 05:57:27;;;;;;;9.60;6.82;;;;;;;16.09;63.35;101746.22;5010566;28;20041;-71
2022/06/15 05:59:55;;;;;;;14.52;7.25;;;;;;;16.21;62.13;101736.41;4989956;28;20026;-71
2022/06/15 06:02:26;;;;;;;13.93;6.97;;;;;;;16.34;61.17;101743.44;5009085;28;20053;-71
2022/06/15 06:04:53;;;;;;;10.00;6.95;;;;;;;16.40;62.64;101742.13;4992811;28;20407;-71
2022/06/15 06:07:19;;;;;;;11.25;6.70;;;;;;;16.50;60.51;101740.50;5008220;28;20029;-71
2022/06/15 06:09:48;;;;;;;16.05;7.15;;;;;;;16.57;59.89;101741.75;5009127;28;20058;-71
2022/06/15 06:12:14;;;;;;;14.43;6.50;;;;;;;16.60;59.20;101731.75;5009008;28;20428;-71
2022/06/15 06:14:39;;;;;;;9.02;5.55;;;;;;;16.73;59.86;101743.28;4968227;28;20284;-71
2022/06/15 06:17:08;;;;;;;11.68;6.75;;;;;;;16.77;58.64;101736.75;5002637;28;20396;-71
2022/06/15 06:19:33;;;;;;;12.57;6.27;;;;;;;16.84;58.85;101740.69;5030561;28;20025;-71
2022/06/15 06:22:01;;;;;;;13.90;6.72;;;;;;;16.96;59.50;101742.44;4991891;28;20492;-71
2022/06/15 06:24:27;;;;;;;12.38;6.60;;;;;;;17.12;59.44;101733.22;4988003;28;20044;-71
2022/06/15 06:27:02;;;;;;;11.35;6.63;;;;;;;17.22;59.45;101732.41;5010856;28;20056;-71
2022/06/15 06:29:30;;;;;;;11.50;6.25;;;;;;;17.32;59.35;101723.59;5009648;28;20050;-71
2022/06/15 06:32:00;;;;;;;10.15;6.20;;;;;;;17.35;57.63;101731.44;4991222;28;20025;-71
2022/06/15 06:34:26;;;;;;;11.00;6.55;;;;;;;17.36;58.04;101727.78;5011093;28;20105;-71
2022/06/15 06:36:52;;;;;;;13.95;6.32;;;;;;;17.51;57.96;101734.66;4991777;28;20543;-71
2022/06/15 06:39:20;;;;;;;11.20;5.63;;;;;;;17.66;57.72;101736.13;4992783;28;20068;-71
2022/06/15 06:41:46;;;;;;;10.52;6.13;;;;;;;17.74;58.46;101732.84;4992418;28;20041;-72
2022/06/15 06:44:13;;;;;;;14.18;6.50;;;;;;;17.89;57.55;101738.88;4996561;28;20037;-71
2022/06/15 06:46:43;;;;;;;11.60;6.05;;;;;;;17.98;57.21;101745.38;4996302;28;20030;-71
2022/06/15 06:49:09;;;;;;;13.32;7.35;;;;;;;18.03;56.81;101744.03;4995953;28;20127;-71
2022/06/15 06:51:37;;;;;;;14.23;6.43;;;;;;;18.13;58.20;101749.50;5010255;28;20030;-71
2022/06/15 06:54:10;;;;;;;9.02;6.57;;;;;;;18.22;57.84;101754.16;5011245;28;20049;-71
2022/06/15 06:56:36;;;;;;;14.23;6.80;;;;;;;18.31;57.78;101747.16;4995827;28;20033;-71
2022/06/15 06:59:03;;;;;;;16.95;7.18;;;;;;;18.35;58.12;101748.63;4991682;28;20045;-71
2022/06/15 07:01:29;;;;;;;10.48;6.25;;;;;;;18.54;56.21;101747.97;4995580;28;20477;-72
2022/06/15 07:03:54;;;;;;;9.38;6.55;;;;;;;18.66;56.81;101754.19;4967172;28;20033;-72
2022/06/15 07:06:20;;;;;;;14.20;6.68;;;;;;;18.78;55.70;101759.44;4996050;28;20529;-72
2022/06/15 07:08:46;;;;;;;10.63;6.35;;;;;;;18.90;55.60;101756.72;4996030;28;20507;-72
2022/06/15 07:11:16;;;;;;;14.38;6.15;;;;;;;18.90;55.50;101760.25;5008356;28;20029;-72
2022/06/15 07:13:42;;;;;;;11.80;5.57;;;;;;;19.01;54.37;101764.75;5007858;28;20080;-71
2022/06/15 07:16:10;;;;;;;12.65;5.40;;;;;;;19.12;54.32;101764.72;5006167;28;20033;-71
2022/06/15 07:18:35;;;;;;;13.93;5.95;;;;;;;19.16;53.57;101755.38;5011692;28;20046;-71
2022/06/15 07:21:07;;;;;;;9.85;6.22;;;;;;;19.11;53.77;101765.69;5013232;28;20041;-72
2022/06/15 07:23:33;;;;;;;7.95;5.22;;;;;;;19.22;52.75;101764.78;5013738;28;20032;-71
2022/06/15 07:26:03;;;;;;;8.55;4.93;;;;;;;19.28;53.83;101756.16;4995361;28;20555;-72
2022/06/15 07:28:29;;;;;;;12.70;5.03;;;;;;;19.38;52.76;101754.38;5009164;28;20025;-72
2022/06/15 07:30:54;;;;;;;11.95;4.97;;;;;;;19.50;53.01;101755.16;4960926;28;20027;-71
2022/06/15 07:33:20;;;;;;;11.45;5.72;;;;;;;19.65;52.55;101767.38;4994729;28;20046;-72
2022/06/15 07:35:47;;;;;;;11.65;5.32;;;;;;;19.75;52.02;101764.72;5014110;28;20496;-71
2022/06/15 07:38:12;;;;;;;12.52;5.20;;;;;;;19.82;51.56;101757.78;4996035;28;20113;-72
2022/06/15 07:40:38;;;;;;;11.20;5.25;;;;;;;19.83;51.57;101764.06;4978666;28;20125;-71
2022/06/15 07:43:07;;;;;;;9.35;5.18;;;;;;;20.00;51.37;101757.16;5008165;28;20045;-71
2022/06/15 07:45:32;;;;;;;8.25;4.88;;;;;;;20.20;51.71;101761.63;4995796;28;20041;-71
2022/06/15 07:51:04;;;;;;;10.90;5.35;;;;;;;20.54;50.90;101767.59;4952958;28;20035;-72
2022/06/15 07:53:30;;;;;;;8.60;5.30;;;;;;;20.55;50.10;101761.19;4936579;29;20105;-72
2022/06/15 07:55:57;;;;;;;11.55;4.68;;;;;;;20.61;48.82;101765.19;4964687;28;20042;-72
2022/06/15 07:58:22;;;;;;;8.55;4.70;;;;;;;20.70;50.10;101772.44;4979437;28;20136;-72
2022/06/15 08:00:50;;;;;;;10.73;4.78;;;;;;;20.75;48.74;101769.34;4995857;28;20442;-71
2022/06/15 08:03:17;;;;;;;12.27;5.40;;;;;;;20.75;48.43;101769.34;5012608;28;20500;-71
2022/06/15 08:05:47;;;;;;;9.27;4.80;;;;;;;20.75;47.88;101772.03;5013775;28;20021;-72
2022/06/15 08:08:20;;;;;;;9.55;4.97;;;;;;;20.76;48.95;101780.00;5013544;28;20709;-72
2022/06/15 08:10:47;;;;;;;9.85;4.88;;;;;;;20.92;47.91;101773.22;5013852;28;20026;-72
2022/06/15 08:13:12;;;;;;;11.13;4.90;;;;;;;21.03;48.02;101776.63;5011917;28;20386;-72
2022/06/15 08:15:38;;;;;;;9.55;4.30;;;;;;;21.17;47.07;101774.47;5013473;28;20033;-72
2022/06/15 08:18:10;;;;;;;8.63;5.20;;;;;;;21.00;46.38;101767.91;5012538;28;20131;-72
2022/06/15 08:20:55;;;;;;;10.32;4.88;;;;;;;21.25;46.81;101772.75;4995865;28;20160;-72
2022/06/15 08:23:32;;;;;;;10.88;4.60;;;;;;;21.47;47.64;101765.34;5012543;28;20029;-72
2022/06/15 08:26:00;;;;;;;12.05;4.68;;;;;;;21.57;46.29;101774.31;4995561;28;20030;-72
2022/06/15 08:28:30;;;;;;;10.40;4.80;;;;;;;21.53;45.13;101764.75;5012963;28;20500;-68
2022/06/15 08:30:56;;;;;;;5.90;3.70;;;;;;;21.59;45.28;101766.91;5013581;28;20026;-67
2022/06/15 08:33:23;;;;;;;7.70;4.75;;;;;;;21.58;45.89;101756.22;5009567;28;20038;-68
2022/06/15 08:35:50;;;;;;;10.32;4.68;;;;;;;21.62;45.41;101771.16;4987105;28;20493;-68
2022/06/15 08:38:18;;;;;;;8.80;4.72;;;;;;;21.66;45.09;101761.75;5007347;28;20120;-69
2022/06/15 08:40:52;;;;;;;10.68;5.22;;;;;;;21.65;46.35;101768.16;5004734;28;20046;-67
2022/06/15 08:43:30;;;;;;;10.55;5.43;;;;;;;21.67;45.56;101772.41;5007944;28;20037;-68
2022/06/15 08:46:06;;;;;;;11.05;5.28;;;;;;;21.63;45.29;101765.59;5006255;28;20072;-68
2022/06/15 08:48:38;;;;;;;7.22;3.97;;;;;;;21.81;44.58;101764.84;5015633;28;20071;-68
2022/06/15 08:51:18;;;;;;;12.68;4.32;;;;;;;21.86;46.11;101757.97;5009427;28;20049;-68
2022/06/15 08:53:59;;;;;;;9.52;3.80;;;;;;;22.03;45.49;101764.47;5009066;28;20035;-68
2022/06/15 08:56:28;;;;;;;11.05;4.80;;;;;;;22.03;44.33;101756.34;5011756;28;20041;-68
2022/06/15 08:59:18;;;;;;;10.95;5.05;;;;;;;22.11;44.95;101767.28;5011382;28;20037;-68
2022/06/15 09:01:55;;;;;;;11.07;4.35;;;;;;;22.03;43.85;101756.34;5009275;28;20420;-68
2022/06/15 09:04:48;;;;;;;10.45;4.53;;;;;;;21.99;43.65;101758.47;5009686;28;20034;-68
2022/06/15 09:07:42;;;;;;;9.10;4.35;;;;;;;22.13;42.81;101756.31;4991134;28;20476;-67
2022/06/15 09:10:07;;;;;;;11.20;4.47;;;;;;;22.11;43.06;101761.84;5006383;28;20015;-67
2022/06/15 09:12:59;;;;;;;11.90;5.30;;;;;;;22.22;44.17;101753.56;4994223;28;20508;-67
2022/06/15 09:15:35;;;;;;;12.32;4.40;;;;;;;22.23;44.37;101746.28;4997298;28;20534;-68
2022/06/15 09:18:07;;;;;;;11.63;4.68;;;;;;;22.50;44.71;101758.09;5004577;28;20044;-67
2022/06/15 09:20:41;;;;;;;11.27;4.53;;;;;;;22.47;42.17;101758.41;4991012;28;20029;-67
2022/06/15 09:23:46;;;;;;;9.20;4.88;;;;;;;22.58;43.14;101764.47;4994254;28;20022;-67
2022/06/15 09:26:19;;;;;;;9.60;4.65;;;;;;;22.67;42.38;101760.00;4984845;28;20527;-67
2022/06/15 09:29:15;;;;;;;8.93;4.53;;;;;;;22.67;41.90;101766.25;4993330;28;20160;-68
2022/06/15 09:31:49;;;;;;;10.00;4.68;;;;;;;22.67;42.71;101768.13;5003445;28;20129;-68
2022/06/15 09:34:21;;;;;;;8.15;4.95;;;;;;;22.72;42.02;101760.41;5008279;28;20116;-68
2022/06/15 09:36:50;;;;;;;12.10;5.15;;;;;;;22.78;42.83;101750.78;5009978;28;20088;-67
2022/06/15 09:39:17;;;;;;;12.98;5.43;;;;;;;22.88;43.17;101757.84;5004866;28;20084;-67
2022/06/15 09:42:05;;;;;;;13.95;5.53;;;;;;;22.85;43.43;101749.16;5010730;28;20096;-67
2022/06/15 09:44:40;;;;;;;13.18;5.00;;;;;;;22.94;41.71;101744.66;4987058;28;20034;-68
2022/06/15 09:47:33;;;;;;;12.55;4.80;;;;;;;23.04;41.98;101748.19;5011051;28;20026;-67
2022/06/15 09:50:36;;;;;;;8.43;4.00;;;;;;;23.08;42.58;101746.84;5008705;28;20022;-68
2022/06/15 09:53:13;;;;;;;10.10;4.38;;;;;;;23.15;41.24;101757.91;4990522;28;20624;-68
2022/06/15 09:55:48;;;;;;;10.65;4.55;;;;;;;23.18;40.42;101752.19;5007937;28;20029;-68
2022/06/15 09:58:17;;;;;;;15.50;5.10;;;;;;;23.16;41.44;101751.50;4992311;28;20059;-68
2022/06/15 10:00:44;;;;;;;;;;;;;;;23.32;42.68;101744.34;5007536;28;20393;-68
2022/06/15 10:03:16;;;;;;;12.85;5.13;;;;;;;23.47;41.91;101743.75;5009042;28;19913;-68
2022/06/15 10:05:44;;;;;;;9.88;5.20;;;;;;;23.44;42.17;101749.50;5011321;28;20028;-68
2022/06/15 10:08:15;;;;;;;10.10;4.93;;;;;;;23.39;42.51;101746.44;5007907;28;20021;-68
2022/06/15 10:11:00;;;;;;;12.07;4.72;;;;;;;23.45;42.19;101743.91;5011063;28;20466;-68
2022/06/15 10:13:28;;;;;;;10.05;4.07;;;;;;;23.58;41.66;101752.47;5010032;28;20033;-68
2022/06/15 10:16:03;;;;;;;10.98;4.32;;;;;;;23.61;42.68;101761.34;5006374;28;20153;-68
2022/06/15 10:18:43;;;;;;;12.85;4.25;;;;;;;23.63;40.93;101754.72;4991927;28;20025;-68
2022/06/15 10:21:14;;;;;;;7.95;3.92;;;;;;;23.75;39.67;101752.63;5008931;28;20405;-68
2022/06/15 10:23:52;;;;;;;9.45;4.15;;;;;;;23.81;40.91;101754.69;5010620;28;20034;-68
2022/06/15 10:26:26;;;;;;;12.25;4.20;;;;;;;23.92;38.61;101751.72;5009327;28;20572;-68
2022/06/15 10:28:52;;;;;;;9.93;4.82;;;;;;;23.92;40.18;101737.28;5009144;28;20428;-68
2022/06/15 10:31:32;;;;;;;11.23;4.93;;;;;;;24.03;40.40;101739.69;4988922;28;20393;-67
2022/06/15 10:33:58;;;;;;;12.88;4.28;;;;;;;24.10;40.69;101735.31;4991980;28;20366;-69
2022/06/15 10:36:33;;;;;;;10.57;4.63;;;;;;;23.98;38.35;101742.06;5010025;28;20030;-68
2022/06/15 10:39:04;;;;;;;8.88;4.30;;;;;;;24.13;38.66;101742.28;5007475;28;20109;-68
2022/06/15 10:41:46;;;;;;;15.20;4.85;;;;;;;24.12;40.19;101721.53;4993040;28;20038;-68
2022/06/15 10:44:40;;;;;;;13.55;4.82;;;;;;;24.20;39.58;101740.59;5010742;28;20436;-68
2022/06/15 10:47:20;;;;;;;17.60;4.10;;;;;;;24.24;39.13;101750.16;5009264;28;20076;-68
2022/06/15 10:50:00;;;;;;;10.80;4.25;;;;;;;24.16;39.51;101739.25;5007958;28;20038;-68
2022/06/15 10:52:40;;;;;;;21.00;4.63;;;;;;;24.18;37.43;101738.06;5009866;28;20038;-68
2022/06/15 11:04:15;;;;;;;10.23;4.03;;;;;;;24.62;38.96;101723.41;5006242;28;20037;-68
2022/06/15 11:06:46;;;;;;;8.15;4.40;;;;;;;24.62;37.67;101712.50;5004333;28;20033;-68
2022/06/15 11:09:20;;;;;;;11.43;4.38;;;;;;;24.57;38.56;101714.91;5015478;28;20057;-68
2022/06/15 11:11:46;;;;;;;12.98;3.80;;;;;;;24.66;38.66;101697.56;5004484;28;20421;-68
2022/06/15 11:14:23;;;;;;;9.15;4.15;;;;;;;24.78;38.69;101707.09;5005290;28;20030;-68
2022/06/15 11:19:50;;;;;;;7.28;4.45;;;;;;;24.76;37.86;101720.03;5010810;28;20048;-68
2022/06/15 11:22:17;;;;;;;9.70;4.63;;;;;;;24.69;39.64;101719.00;5008290;28;20033;-70
2022/06/15 11:24:51;;;;;;;10.23;3.85;;;;;;;24.77;38.89;101716.31;4990940;28;20030;-70
2022/06/15 11:27:31;;;;;;;8.55;4.10;;;;;;;24.83;37.56;101721.06;5010252;28;20104;-71
2022/06/15 11:30:22;;;;;;;12.05;4.40;;;;;;;24.81;39.17;101728.53;5015867;28;20103;-71
2022/06/15 11:33:11;;;;;;;11.18;4.53;;;;;;;24.82;40.54;101721.22;5013435;28;20040;-73
2022/06/15 11:36:07;;;;;;;17.73;4.15;;;;;;;24.85;39.77;101718.16;5009175;28;20030;-72
2022/06/15 11:38:49;;;;;;;12.85;5.10;;;;;;;24.88;38.05;101721.41;5012114;28;20022;-68
2022/06/15 11:41:29;;;;;;;11.52;4.38;;;;;;;24.96;38.57;101720.56;5014080;28;20121;-67
2022/06/15 11:43:56;;;;;;;15.43;4.57;;;;;;;25.02;39.60;101719.88;5012176;28;20044;-67
2022/06/15 11:46:53;;;;;;;12.77;4.15;;;;;;;25.02;38.33;101728.03;5011529;28;20033;-68
2022/06/15 11:49:23;;;;;;;9.18;4.47;;;;;;;25.09;39.27;101720.91;5008672;28;20030;-67
2022/06/15 11:51:52;;;;;;;11.43;4.65;;;;;;;25.05;37.62;101724.13;4994497;28;20042;-67
2022/06/15 11:54:48;;;;;;;9.73;4.50;;;;;;;24.92;39.23;101720.03;5013998;28;20449;-67
2022/06/15 11:57:37;;;;;;;11.98;5.03;;;;;;;24.94;38.13;101717.13;5014009;28;20026;-67